createdAt,value
2023-05-25T00:00:15.652Z,1012.25
2023-05-25T00:00:40.032Z,1012.25
2023-05-25T00:01:03.755Z,1012.19
2023-05-25T00:01:24.794Z,1012.21
2023-05-25T00:01:45.910Z,1012.19
2023-05-25T00:02:07.026Z,1012.21
2023-05-25T00:02:28.199Z,1012.21
2023-05-25T00:02:49.587Z,1012.17
2023-05-25T00:03:10.963Z,1012.17
2023-05-25T00:03:32.605Z,1012.23
2023-05-25T00:03:54.143Z,1012.19
2023-05-25T00:04:15.317Z,1012.19
2023-05-25T00:04:36.710Z,1012.19
2023-05-25T00:04:57.962Z,1012.21
2023-05-25T00:05:18.973Z,1012.19
2023-05-25T00:05:40.057Z,1012.21
2023-05-25T00:06:01.105Z,1012.17
2023-05-25T00:06:22.195Z,1012.17
2023-05-25T00:06:43.217Z,1012.16
2023-05-25T00:07:04.280Z,1012.17
2023-05-25T00:07:25.348Z,1012.19
2023-05-25T00:07:46.406Z,1012.17
2023-05-25T00:08:07.468Z,1012.17
2023-05-25T00:08:28.522Z,1012.14
2023-05-25T00:08:49.575Z,1012.19
2023-05-25T00:09:10.638Z,1012.16
2023-05-25T00:09:31.700Z,1012.16
2023-05-25T00:09:52.992Z,1012.16
2023-05-25T00:10:14.085Z,1012.14
2023-05-25T00:10:35.132Z,1012.16
2023-05-25T00:10:56.243Z,1012.14
2023-05-25T00:11:17.282Z,1012.17
2023-05-25T00:11:38.337Z,1012.14
2023-05-25T00:11:59.403Z,1012.12
2023-05-25T00:12:20.453Z,1012.14
2023-05-25T00:12:41.522Z,1012.16
2023-05-25T00:13:02.572Z,1012.16
2023-05-25T00:13:23.631Z,1012.14
2023-05-25T00:13:44.691Z,1012.16
2023-05-25T00:14:05.736Z,1012.16
2023-05-25T00:14:26.801Z,1012.14
2023-05-25T00:14:47.879Z,1012.16
2023-05-25T00:15:08.987Z,1012.16
2023-05-25T00:15:30.257Z,1012.17
2023-05-25T00:15:51.319Z,1012.17
2023-05-25T00:16:12.390Z,1012.14
2023-05-25T00:16:33.440Z,1012.17
2023-05-25T00:16:54.515Z,1012.16
2023-05-25T00:17:15.749Z,1012.19
2023-05-25T00:17:36.822Z,1012.21
2023-05-25T00:17:57.910Z,1012.17
2023-05-25T00:18:19.068Z,1012.19
2023-05-25T00:18:40.118Z,1012.19
2023-05-25T00:19:01.199Z,1012.19
2023-05-25T00:19:22.261Z,1012.19
2023-05-25T00:19:43.296Z,1012.19
2023-05-25T00:20:04.361Z,1012.17
2023-05-25T00:20:25.662Z,1012.19
2023-05-25T00:20:46.913Z,1012.17
2023-05-25T00:21:07.980Z,1012.17
2023-05-25T00:21:29.031Z,1012.19
2023-05-25T00:21:50.142Z,1012.19
2023-05-25T00:22:11.177Z,1012.21
2023-05-25T00:22:32.248Z,1012.19
2023-05-25T00:22:53.295Z,1012.16
2023-05-25T00:23:14.357Z,1012.16
2023-05-25T00:23:35.432Z,1012.16
2023-05-25T00:23:56.507Z,1012.19
2023-05-25T00:24:17.541Z,1012.19
2023-05-25T00:24:38.607Z,1012.19
2023-05-25T00:24:59.664Z,1012.14
2023-05-25T00:25:20.721Z,1012.14
2023-05-25T00:25:42.269Z,1012.19
2023-05-25T00:26:03.727Z,1012.14
2023-05-25T00:26:24.805Z,1012.12
2023-05-25T00:26:45.870Z,1012.14
2023-05-25T00:27:06.923Z,1012.14
2023-05-25T00:27:28.015Z,1012.14
2023-05-25T00:27:49.045Z,1012.14
2023-05-25T00:28:10.118Z,1012.16
2023-05-25T00:28:31.171Z,1012.14
2023-05-25T00:28:52.218Z,1012.12
2023-05-25T00:29:13.272Z,1012.12
2023-05-25T00:29:34.326Z,1012.14
2023-05-25T00:29:55.404Z,1012.16
2023-05-25T00:30:16.473Z,1012.16
2023-05-25T00:30:37.592Z,1012.16
2023-05-25T00:30:58.818Z,1012.16
2023-05-25T00:31:19.955Z,1012.17
2023-05-25T00:31:41.165Z,1012.14
2023-05-25T00:32:02.213Z,1012.16
2023-05-25T00:32:23.345Z,1012.17
2023-05-25T00:32:44.504Z,1012.16
2023-05-25T00:33:05.550Z,1012.17
2023-05-25T00:33:26.628Z,1012.17
2023-05-25T00:33:47.689Z,1012.19
2023-05-25T00:34:08.745Z,1012.16
2023-05-25T00:34:29.791Z,1012.14
2023-05-25T00:34:50.876Z,1012.14
2023-05-25T00:35:11.938Z,1012.16
2023-05-25T00:35:32.993Z,1012.16
2023-05-25T00:35:54.035Z,1012.17
2023-05-25T00:36:15.795Z,1012.16
2023-05-25T00:36:36.894Z,1012.16
2023-05-25T00:36:57.974Z,1012.17
2023-05-25T00:37:19.042Z,1012.17
2023-05-25T00:37:40.098Z,1012.17
2023-05-25T00:38:01.218Z,1012.17
2023-05-25T00:38:22.258Z,1012.19
2023-05-25T00:38:43.332Z,1012.17
2023-05-25T00:39:04.397Z,1012.19
2023-05-25T00:39:25.457Z,1012.17
2023-05-25T00:39:46.508Z,1012.17
2023-05-25T00:40:07.561Z,1012.17
2023-05-25T00:40:28.614Z,1012.17
2023-05-25T00:40:49.678Z,1012.19
2023-05-25T00:41:10.740Z,1012.21
2023-05-25T00:41:31.850Z,1012.21
2023-05-25T00:41:53.137Z,1012.19
2023-05-25T00:42:14.177Z,1012.21
2023-05-25T00:42:35.234Z,1012.23
2023-05-25T00:42:56.288Z,1012.23
2023-05-25T00:43:17.349Z,1012.21
2023-05-25T00:43:38.402Z,1012.21
2023-05-25T00:43:59.499Z,1012.21
2023-05-25T00:44:20.529Z,1012.21
2023-05-25T00:44:41.586Z,1012.21
2023-05-25T00:45:02.657Z,1012.21
2023-05-25T00:45:23.700Z,1012.23
2023-05-25T00:45:44.939Z,1012.21
2023-05-25T00:46:06.156Z,1012.21
2023-05-25T00:46:27.233Z,1012.21
2023-05-25T00:46:48.416Z,1012.21
2023-05-25T00:47:09.504Z,1012.17
2023-05-25T00:47:30.603Z,1012.21
2023-05-25T00:47:51.821Z,1012.21
2023-05-25T00:48:12.996Z,1012.21
2023-05-25T00:48:34.039Z,1012.21
2023-05-25T00:48:55.097Z,1012.16
2023-05-25T00:49:16.161Z,1012.16
2023-05-25T00:49:37.251Z,1012.16
2023-05-25T00:49:58.344Z,1012.17
2023-05-25T00:50:19.397Z,1012.16
2023-05-25T00:50:40.469Z,1012.17
2023-05-25T00:51:01.569Z,1012.17
2023-05-25T00:51:22.594Z,1012.17
2023-05-25T00:51:43.657Z,1012.16
2023-05-25T00:52:04.925Z,1012.17
2023-05-25T00:52:26.007Z,1012.16
2023-05-25T00:52:47.063Z,1012.16
2023-05-25T00:53:08.143Z,1012.17
2023-05-25T00:53:29.200Z,1012.16
2023-05-25T00:53:50.252Z,1012.16
2023-05-25T00:54:11.304Z,1012.16
2023-05-25T00:54:32.366Z,1012.17
2023-05-25T00:54:53.418Z,1012.17
2023-05-25T00:55:14.490Z,1012.16
2023-05-25T00:55:35.555Z,1012.17
2023-05-25T00:55:56.609Z,1012.17
2023-05-25T00:56:17.669Z,1012.17
2023-05-25T00:56:38.764Z,1012.19
2023-05-25T00:56:59.803Z,1012.19
2023-05-25T00:57:21.053Z,1012.21
2023-05-25T00:57:42.332Z,1012.19
2023-05-25T00:58:03.413Z,1012.19
2023-05-25T00:58:24.449Z,1012.21
2023-05-25T00:58:45.541Z,1012.21
2023-05-25T00:59:06.580Z,1012.19
2023-05-25T00:59:27.634Z,1012.21
2023-05-25T00:59:48.694Z,1012.19
2023-05-25T01:00:09.740Z,1012.21
2023-05-25T01:00:30.811Z,1012.21
2023-05-25T01:00:51.885Z,1012.21
2023-05-25T01:01:12.932Z,1012.21
2023-05-25T01:01:34.049Z,1012.23
2023-05-25T01:01:55.140Z,1012.25
2023-05-25T01:02:16.343Z,1012.25
2023-05-25T01:02:37.828Z,1012.23
2023-05-25T01:02:59.321Z,1012.23
2023-05-25T01:03:20.496Z,1012.25
2023-05-25T01:03:41.626Z,1012.25
2023-05-25T01:04:02.926Z,1012.23
2023-05-25T01:04:24.010Z,1012.23
2023-05-25T01:04:45.097Z,1012.23
2023-05-25T01:05:06.135Z,1012.23
2023-05-25T01:05:27.204Z,1012.19
2023-05-25T01:05:48.268Z,1012.21
2023-05-25T01:06:09.319Z,1012.23
2023-05-25T01:06:30.393Z,1012.23
2023-05-25T01:06:51.428Z,1012.23
2023-05-25T01:07:12.488Z,1012.23
2023-05-25T01:07:33.558Z,1012.23
2023-05-25T01:07:54.665Z,1012.27
2023-05-25T01:08:15.757Z,1012.25
2023-05-25T01:08:36.828Z,1012.25
2023-05-25T01:08:57.880Z,1012.23
2023-05-25T01:09:18.940Z,1012.25
2023-05-25T01:09:39.985Z,1012.23
2023-05-25T01:10:01.046Z,1012.23
2023-05-25T01:10:22.103Z,1012.25
2023-05-25T01:10:43.188Z,1012.23
2023-05-25T01:11:04.229Z,1012.17
2023-05-25T01:11:25.280Z,1012.23
2023-05-25T01:11:46.337Z,1012.23
2023-05-25T01:12:07.407Z,1012.19
2023-05-25T01:12:28.467Z,1012.19
2023-05-25T01:12:49.514Z,1012.25
2023-05-25T01:13:10.822Z,1012.21
2023-05-25T01:13:32.078Z,1012.19
2023-05-25T01:13:53.169Z,1012.23
2023-05-25T01:14:14.217Z,1012.21
2023-05-25T01:14:35.279Z,1012.21
2023-05-25T01:14:56.375Z,1012.23
2023-05-25T01:15:17.442Z,1012.21
2023-05-25T01:15:38.503Z,1012.23
2023-05-25T01:15:59.639Z,1012.23
2023-05-25T01:16:20.770Z,1012.21
2023-05-25T01:16:41.955Z,1012.23
2023-05-25T01:17:03.039Z,1012.21
2023-05-25T01:17:24.108Z,1012.23
2023-05-25T01:17:45.181Z,1012.25
2023-05-25T01:18:06.252Z,1012.23
2023-05-25T01:18:27.508Z,1012.23
2023-05-25T01:18:48.781Z,1012.23
2023-05-25T01:19:09.840Z,1012.23
2023-05-25T01:19:30.897Z,1012.23
2023-05-25T01:20:08.345Z,1012.21
2023-05-25T01:20:18.957Z,1012.19
2023-05-25T01:20:40.041Z,1012.19
2023-05-25T01:21:01.106Z,1012.21
2023-05-25T01:21:22.217Z,1012.21
2023-05-25T01:21:43.281Z,1012.23
2023-05-25T01:22:04.335Z,1012.19
2023-05-25T01:22:25.386Z,1012.23
2023-05-25T01:22:46.437Z,1012.19
2023-05-25T01:23:07.497Z,1012.21
2023-05-25T01:23:28.592Z,1012.19
2023-05-25T01:23:49.689Z,1012.27
2023-05-25T01:24:10.728Z,1012.21
2023-05-25T01:24:31.786Z,1012.23
2023-05-25T01:24:52.849Z,1012.25
2023-05-25T01:25:13.916Z,1012.23
2023-05-25T01:25:34.979Z,1012.25
2023-05-25T01:25:56.016Z,1012.27
2023-05-25T01:26:17.077Z,1012.27
2023-05-25T01:26:38.149Z,1012.23
2023-05-25T01:26:59.212Z,1012.29
2023-05-25T01:27:20.241Z,1012.31
2023-05-25T01:27:41.308Z,1012.27
2023-05-25T01:28:02.405Z,1012.27
2023-05-25T01:28:23.485Z,1012.33
2023-05-25T01:28:44.551Z,1012.29
2023-05-25T01:29:05.814Z,1012.29
2023-05-25T01:29:26.872Z,1012.31
2023-05-25T01:29:47.922Z,1012.31
2023-05-25T01:30:08.978Z,1012.31
2023-05-25T01:30:30.038Z,1012.33
2023-05-25T01:30:51.116Z,1012.31
2023-05-25T01:31:12.170Z,1012.33
2023-05-25T01:31:33.239Z,1012.31
2023-05-25T01:31:54.345Z,1012.33
2023-05-25T01:32:15.455Z,1012.33
2023-05-25T01:32:36.590Z,1012.33
2023-05-25T01:32:57.669Z,1012.35
2023-05-25T01:33:18.854Z,1012.35
2023-05-25T01:33:39.963Z,1012.31
2023-05-25T01:34:01.071Z,1012.33
2023-05-25T01:34:22.335Z,1012.33
2023-05-25T01:34:43.412Z,1012.35
2023-05-25T01:35:04.466Z,1012.35
2023-05-25T01:35:25.524Z,1012.35
2023-05-25T01:35:46.658Z,1012.35
2023-05-25T01:36:07.705Z,1012.35
2023-05-25T01:36:28.762Z,1012.33
2023-05-25T01:36:49.809Z,1012.31
2023-05-25T01:37:10.870Z,1012.33
2023-05-25T01:37:31.949Z,1012.33
2023-05-25T01:37:52.995Z,1012.33
2023-05-25T01:38:14.046Z,1012.33
2023-05-25T01:38:35.102Z,1012.29
2023-05-25T01:38:56.147Z,1012.33
2023-05-25T01:39:17.250Z,1012.31
2023-05-25T01:39:38.350Z,1012.31
2023-05-25T01:39:59.394Z,1012.31
2023-05-25T01:40:20.461Z,1012.29
2023-05-25T01:40:41.527Z,1012.31
2023-05-25T01:41:02.609Z,1012.31
2023-05-25T01:41:23.668Z,1012.31
2023-05-25T01:41:44.731Z,1012.33
2023-05-25T01:42:05.799Z,1012.29
2023-05-25T01:42:26.884Z,1012.31
2023-05-25T01:42:47.928Z,1012.33
2023-05-25T01:43:08.965Z,1012.31
2023-05-25T01:43:30.035Z,1012.29
2023-05-25T01:43:51.080Z,1012.29
2023-05-25T01:44:12.121Z,1012.29
2023-05-25T01:44:33.407Z,1012.29
2023-05-25T01:44:54.519Z,1012.31
2023-05-25T01:45:15.592Z,1012.31
2023-05-25T01:45:36.721Z,1012.33
2023-05-25T01:45:57.815Z,1012.31
2023-05-25T01:46:18.903Z,1012.33
2023-05-25T01:46:40.000Z,1012.31
2023-05-25T01:47:01.064Z,1012.29
2023-05-25T01:47:22.124Z,1012.31
2023-05-25T01:47:43.203Z,1012.31
2023-05-25T01:48:04.286Z,1012.33
2023-05-25T01:48:25.346Z,1012.35
2023-05-25T01:48:46.401Z,1012.31
2023-05-25T01:49:07.463Z,1012.33
2023-05-25T01:49:28.509Z,1012.33
2023-05-25T01:49:49.599Z,1012.35
2023-05-25T01:50:10.872Z,1012.31
2023-05-25T01:50:31.913Z,1012.33
2023-05-25T01:50:52.960Z,1012.33
2023-05-25T01:51:14.031Z,1012.35
2023-05-25T01:51:35.075Z,1012.35
2023-05-25T01:51:56.249Z,1012.37
2023-05-25T01:52:17.319Z,1012.37
2023-05-25T01:52:38.363Z,1012.35
2023-05-25T01:52:59.486Z,1012.35
2023-05-25T01:53:20.550Z,1012.39
2023-05-25T01:53:41.588Z,1012.39
2023-05-25T01:54:02.638Z,1012.39
2023-05-25T01:54:23.693Z,1012.41
2023-05-25T01:54:44.745Z,1012.41
2023-05-25T01:55:05.833Z,1012.39
2023-05-25T01:55:26.937Z,1012.41
2023-05-25T01:55:48.006Z,1012.41
2023-05-25T01:56:09.105Z,1012.43
2023-05-25T01:56:30.127Z,1012.41
2023-05-25T01:56:51.179Z,1012.39
2023-05-25T01:57:12.253Z,1012.43
2023-05-25T01:57:33.300Z,1012.41
2023-05-25T01:57:54.357Z,1012.43
2023-05-25T01:58:15.428Z,1012.41
2023-05-25T01:58:36.492Z,1012.41
2023-05-25T01:58:57.561Z,1012.39
2023-05-25T01:59:18.615Z,1012.39
2023-05-25T01:59:39.670Z,1012.37
2023-05-25T02:00:00.723Z,1012.39
2023-05-25T02:00:21.833Z,1012.33
2023-05-25T02:00:42.937Z,1012.33
2023-05-25T02:01:04.036Z,1012.31
2023-05-25T02:01:25.127Z,1012.33
2023-05-25T02:01:46.248Z,1012.33
2023-05-25T02:02:07.344Z,1012.31
2023-05-25T02:02:28.471Z,1012.29
2023-05-25T02:02:49.605Z,1012.31
2023-05-25T02:03:10.731Z,1012.29
2023-05-25T02:03:31.808Z,1012.31
2023-05-25T02:03:52.906Z,1012.31
2023-05-25T02:04:13.971Z,1012.31
2023-05-25T02:04:35.046Z,1012.29
2023-05-25T02:04:56.096Z,1012.33
2023-05-25T02:05:17.144Z,1012.33
2023-05-25T02:05:38.251Z,1012.31
2023-05-25T02:05:59.335Z,1012.33
2023-05-25T02:06:20.434Z,1012.31
2023-05-25T02:06:41.495Z,1012.31
2023-05-25T02:07:02.556Z,1012.31
2023-05-25T02:07:23.612Z,1012.31
2023-05-25T02:07:44.654Z,1012.31
2023-05-25T02:08:05.720Z,1012.31
2023-05-25T02:08:26.783Z,1012.29
2023-05-25T02:08:47.836Z,1012.29
2023-05-25T02:09:08.922Z,1012.27
2023-05-25T02:09:29.943Z,1012.29
2023-05-25T02:09:51.006Z,1012.29
2023-05-25T02:10:12.075Z,1012.29
2023-05-25T02:10:33.110Z,1012.29
2023-05-25T02:10:54.382Z,1012.27
2023-05-25T02:11:15.512Z,1012.29
2023-05-25T02:11:36.571Z,1012.29
2023-05-25T02:11:57.619Z,1012.29
2023-05-25T02:12:18.672Z,1012.31
2023-05-25T02:12:39.740Z,1012.29
2023-05-25T02:13:00.791Z,1012.27
2023-05-25T02:13:21.852Z,1012.29
2023-05-25T02:13:42.933Z,1012.29
2023-05-25T02:14:03.956Z,1012.27
2023-05-25T02:14:25.014Z,1012.31
2023-05-25T02:14:46.090Z,1012.29
2023-05-25T02:15:07.144Z,1012.29
2023-05-25T02:15:28.242Z,1012.27
2023-05-25T02:15:49.293Z,1012.27
2023-05-25T02:16:10.468Z,1012.27
2023-05-25T02:16:31.814Z,1012.23
2023-05-25T02:16:52.901Z,1012.23
2023-05-25T02:17:13.976Z,1012.23
2023-05-25T02:17:35.029Z,1012.23
2023-05-25T02:17:56.120Z,1012.21
2023-05-25T02:18:17.173Z,1012.19
2023-05-25T02:18:38.236Z,1012.23
2023-05-25T02:18:59.264Z,1012.19
2023-05-25T02:19:20.320Z,1012.21
2023-05-25T02:19:41.374Z,1012.23
2023-05-25T02:20:02.466Z,1012.19
2023-05-25T02:20:23.514Z,1012.23
2023-05-25T02:20:44.723Z,1012.21
2023-05-25T02:21:05.813Z,1012.21
2023-05-25T02:21:27.077Z,1012.23
2023-05-25T02:21:48.337Z,1012.17
2023-05-25T02:22:09.401Z,1012.19
2023-05-25T02:22:30.458Z,1012.21
2023-05-25T02:22:51.525Z,1012.19
2023-05-25T02:23:12.576Z,1012.21
2023-05-25T02:23:33.617Z,1012.19
2023-05-25T02:23:54.681Z,1012.17
2023-05-25T02:24:15.727Z,1012.21
2023-05-25T02:24:36.796Z,1012.23
2023-05-25T02:24:57.857Z,1012.19
2023-05-25T02:25:18.919Z,1012.19
2023-05-25T02:25:39.976Z,1012.21
2023-05-25T02:26:01.020Z,1012.17
2023-05-25T02:26:22.081Z,1012.19
2023-05-25T02:26:43.179Z,1012.17
2023-05-25T02:27:04.477Z,1012.19
2023-05-25T02:27:25.514Z,1012.21
2023-05-25T02:27:46.573Z,1012.16
2023-05-25T02:28:07.661Z,1012.16
2023-05-25T02:28:28.703Z,1012.17
2023-05-25T02:28:49.739Z,1012.16
2023-05-25T02:29:10.804Z,1012.19
2023-05-25T02:29:31.874Z,1012.17
2023-05-25T02:29:52.920Z,1012.19
2023-05-25T02:30:13.964Z,1012.17
2023-05-25T02:30:35.046Z,1012.16
2023-05-25T02:30:56.180Z,1012.16
2023-05-25T02:31:17.257Z,1012.16
2023-05-25T02:31:38.365Z,1012.16
2023-05-25T02:31:59.444Z,1012.14
2023-05-25T02:32:20.535Z,1012.16
2023-05-25T02:32:41.600Z,1012.16
2023-05-25T02:33:02.717Z,1012.14
2023-05-25T02:33:23.801Z,1012.14
2023-05-25T02:33:44.822Z,1012.16
2023-05-25T02:34:05.919Z,1012.16
2023-05-25T02:34:26.981Z,1012.17
2023-05-25T02:34:48.028Z,1012.16
2023-05-25T02:35:09.076Z,1012.14
2023-05-25T02:35:30.134Z,1012.16
2023-05-25T02:35:51.197Z,1012.16
2023-05-25T02:36:12.248Z,1012.14
2023-05-25T02:36:33.360Z,1012.16
2023-05-25T02:36:54.403Z,1012.16
2023-05-25T02:37:15.497Z,1012.16
2023-05-25T02:37:36.766Z,1012.16
2023-05-25T02:37:57.835Z,1012.16
2023-05-25T02:38:18.884Z,1012.17
2023-05-25T02:38:39.941Z,1012.17
2023-05-25T02:39:01.002Z,1012.17
2023-05-25T02:39:22.145Z,1012.19
2023-05-25T02:39:43.161Z,1012.19
2023-05-25T02:40:04.258Z,1012.19
2023-05-25T02:40:25.291Z,1012.21
2023-05-25T02:40:46.357Z,1012.21
2023-05-25T02:41:07.420Z,1012.25
2023-05-25T02:41:28.477Z,1012.23
2023-05-25T02:41:49.539Z,1012.21
2023-05-25T02:42:10.584Z,1012.23
2023-05-25T02:42:31.850Z,1012.25
2023-05-25T02:42:53.123Z,1012.27
2023-05-25T02:43:14.175Z,1012.25
2023-05-25T02:43:35.227Z,1012.25
2023-05-25T02:43:56.342Z,1012.27
2023-05-25T02:44:17.359Z,1012.27
2023-05-25T02:44:38.428Z,1012.23
2023-05-25T02:44:59.467Z,1012.23
2023-05-25T02:45:20.533Z,1012.25
2023-05-25T02:45:41.677Z,1012.25
2023-05-25T02:46:02.793Z,1012.23
2023-05-25T02:46:23.853Z,1012.27
2023-05-25T02:46:44.947Z,1012.25
2023-05-25T02:47:06.102Z,1012.23
2023-05-25T02:47:27.208Z,1012.25
2023-05-25T02:47:48.450Z,1012.23
2023-05-25T02:48:09.734Z,1012.19
2023-05-25T02:48:30.811Z,1012.21
2023-05-25T02:48:51.868Z,1012.21
2023-05-25T02:49:12.910Z,1012.21
2023-05-25T02:49:33.968Z,1012.17
2023-05-25T02:49:55.014Z,1012.19
2023-05-25T02:50:16.082Z,1012.21
2023-05-25T02:50:37.123Z,1012.23
2023-05-25T02:50:58.184Z,1012.23
2023-05-25T02:51:19.233Z,1012.21
2023-05-25T02:51:40.293Z,1012.23
2023-05-25T02:52:01.344Z,1012.25
2023-05-25T02:52:22.478Z,1012.23
2023-05-25T02:52:43.495Z,1012.23
2023-05-25T02:53:04.611Z,1012.23
2023-05-25T02:53:25.674Z,1012.23
2023-05-25T02:53:46.723Z,1012.21
2023-05-25T02:54:07.779Z,1012.21
2023-05-25T02:54:28.866Z,1012.21
2023-05-25T02:54:49.908Z,1012.21
2023-05-25T02:55:10.968Z,1012.23
2023-05-25T02:55:32.038Z,1012.21
2023-05-25T02:55:53.072Z,1012.21
2023-05-25T02:56:14.130Z,1012.19
2023-05-25T02:56:35.183Z,1012.21
2023-05-25T02:56:56.241Z,1012.21
2023-05-25T02:57:17.313Z,1012.23
2023-05-25T02:57:38.358Z,1012.21
2023-05-25T02:57:59.401Z,1012.21
2023-05-25T02:58:20.713Z,1012.23
2023-05-25T02:58:41.779Z,1012.19
2023-05-25T02:59:02.855Z,1012.19
2023-05-25T02:59:23.890Z,1012.21
2023-05-25T02:59:44.952Z,1012.21
2023-05-25T03:00:05.990Z,1012.17
2023-05-25T03:00:27.076Z,1012.19
2023-05-25T03:00:48.173Z,1012.17
2023-05-25T03:01:09.221Z,1012.19
2023-05-25T03:01:30.327Z,1012.19
2023-05-25T03:01:51.350Z,1012.19
2023-05-25T03:02:12.401Z,1012.16
2023-05-25T03:02:33.487Z,1012.16
2023-05-25T03:02:54.571Z,1012.16
2023-05-25T03:03:15.624Z,1012.16
2023-05-25T03:03:36.924Z,1012.16
2023-05-25T03:03:58.267Z,1012.16
2023-05-25T03:04:19.324Z,1012.16
2023-05-25T03:04:40.389Z,1012.16
2023-05-25T03:05:04.145Z,1012.16
2023-05-25T03:05:25.702Z,1012.16
2023-05-25T03:05:46.819Z,1012.16
2023-05-25T03:06:07.865Z,1012.16
2023-05-25T03:06:28.921Z,1012.17
2023-05-25T03:06:49.986Z,1012.17
2023-05-25T03:07:11.046Z,1012.17
2023-05-25T03:07:32.091Z,1012.17
2023-05-25T03:07:53.144Z,1012.19
2023-05-25T03:08:14.237Z,1012.19
2023-05-25T03:08:35.291Z,1012.23
2023-05-25T03:08:56.397Z,1012.19
2023-05-25T03:09:17.490Z,1012.21
2023-05-25T03:09:38.550Z,1012.21
2023-05-25T03:09:59.685Z,1012.25
2023-05-25T03:10:20.750Z,1012.21
2023-05-25T03:10:41.804Z,1012.21
2023-05-25T03:11:02.877Z,1012.23
2023-05-25T03:11:23.931Z,1012.23
2023-05-25T03:11:45.031Z,1012.25
2023-05-25T03:12:06.051Z,1012.19
2023-05-25T03:12:27.089Z,1012.21
2023-05-25T03:12:48.152Z,1012.21
2023-05-25T03:13:09.221Z,1012.23
2023-05-25T03:13:30.282Z,1012.21
2023-05-25T03:13:51.366Z,1012.23
2023-05-25T03:14:12.632Z,1012.23
2023-05-25T03:14:33.902Z,1012.25
2023-05-25T03:14:54.962Z,1012.25
2023-05-25T03:15:16.026Z,1012.23
2023-05-25T03:15:37.073Z,1012.27
2023-05-25T03:15:58.252Z,1012.25
2023-05-25T03:16:19.348Z,1012.27
2023-05-25T03:16:40.452Z,1012.25
2023-05-25T03:17:01.584Z,1012.29
2023-05-25T03:17:22.692Z,1012.31
2023-05-25T03:17:43.786Z,1012.27
2023-05-25T03:18:04.924Z,1012.31
2023-05-25T03:18:25.973Z,1012.31
2023-05-25T03:18:47.116Z,1012.29
2023-05-25T03:19:08.149Z,1012.31
2023-05-25T03:19:29.407Z,1012.31
2023-05-25T03:19:50.843Z,1012.33
2023-05-25T03:20:11.959Z,1012.35
2023-05-25T03:20:33.208Z,1012.35
2023-05-25T03:20:54.325Z,1012.37
2023-05-25T03:21:15.369Z,1012.37
2023-05-25T03:21:36.472Z,1012.33
2023-05-25T03:21:57.513Z,1012.35
2023-05-25T03:22:18.585Z,1012.35
2023-05-25T03:22:39.638Z,1012.37
2023-05-25T03:23:00.699Z,1012.35
2023-05-25T03:23:21.752Z,1012.37
2023-05-25T03:23:42.815Z,1012.37
2023-05-25T03:24:03.878Z,1012.37
2023-05-25T03:24:25.018Z,1012.39
2023-05-25T03:24:46.304Z,1012.35
2023-05-25T03:25:07.382Z,1012.35
2023-05-25T03:25:28.432Z,1012.37
2023-05-25T03:25:49.467Z,1012.37
2023-05-25T03:26:10.529Z,1012.31
2023-05-25T03:26:31.572Z,1012.33
2023-05-25T03:26:52.628Z,1012.33
2023-05-25T03:27:13.682Z,1012.31
2023-05-25T03:27:34.728Z,1012.33
2023-05-25T03:27:55.761Z,1012.33
2023-05-25T03:28:16.833Z,1012.33
2023-05-25T03:28:37.874Z,1012.35
2023-05-25T03:28:58.915Z,1012.37
2023-05-25T03:29:19.996Z,1012.33
2023-05-25T03:29:41.032Z,1012.33
2023-05-25T03:30:02.128Z,1012.35
2023-05-25T03:30:23.211Z,1012.35
2023-05-25T03:30:44.261Z,1012.35
2023-05-25T03:31:05.321Z,1012.33
2023-05-25T03:31:26.375Z,1012.33
2023-05-25T03:31:47.460Z,1012.35
2023-05-25T03:32:08.502Z,1012.35
2023-05-25T03:32:29.569Z,1012.35
2023-05-25T03:32:50.727Z,1012.35
2023-05-25T03:33:11.877Z,1012.35
2023-05-25T03:33:32.919Z,1012.35
2023-05-25T03:33:53.993Z,1012.33
2023-05-25T03:34:15.053Z,1012.37
2023-05-25T03:34:36.083Z,1012.37
2023-05-25T03:34:57.140Z,1012.35
2023-05-25T03:35:18.227Z,1012.33
2023-05-25T03:35:39.481Z,1012.37
2023-05-25T03:36:00.516Z,1012.35
2023-05-25T03:36:21.586Z,1012.37
2023-05-25T03:36:42.899Z,1012.37
2023-05-25T03:37:03.960Z,1012.39
2023-05-25T03:37:24.997Z,1012.35
2023-05-25T03:37:46.037Z,1012.39
2023-05-25T03:38:07.085Z,1012.39
2023-05-25T03:38:28.143Z,1012.41
2023-05-25T03:38:49.225Z,1012.41
2023-05-25T03:39:10.296Z,1012.39
2023-05-25T03:39:31.299Z,1012.39
2023-05-25T03:39:52.380Z,1012.39
2023-05-25T03:40:13.426Z,1012.39
2023-05-25T03:40:34.531Z,1012.39
2023-05-25T03:40:55.815Z,1012.39
2023-05-25T03:41:16.871Z,1012.37
2023-05-25T03:41:37.989Z,1012.37
2023-05-25T03:41:59.009Z,1012.35
2023-05-25T03:42:20.057Z,1012.35
2023-05-25T03:42:41.104Z,1012.35
2023-05-25T03:43:02.150Z,1012.37
2023-05-25T03:43:23.234Z,1012.39
2023-05-25T03:43:44.305Z,1012.41
2023-05-25T03:44:05.319Z,1012.39
2023-05-25T03:44:26.378Z,1012.41
2023-05-25T03:44:47.446Z,1012.39
2023-05-25T03:45:08.474Z,1012.41
2023-05-25T03:45:29.541Z,1012.41
2023-05-25T03:45:50.688Z,1012.41
2023-05-25T03:46:11.913Z,1012.41
2023-05-25T03:46:33.069Z,1012.43
2023-05-25T03:46:54.093Z,1012.43
2023-05-25T03:47:15.220Z,1012.43
2023-05-25T03:47:36.311Z,1012.45
2023-05-25T03:47:57.431Z,1012.43
2023-05-25T03:48:18.518Z,1012.47
2023-05-25T03:48:39.635Z,1012.47
2023-05-25T03:49:00.691Z,1012.45
2023-05-25T03:49:21.735Z,1012.47
2023-05-25T03:49:42.847Z,1012.47
2023-05-25T03:50:03.894Z,1012.49
2023-05-25T03:50:24.993Z,1012.49
2023-05-25T03:50:46.062Z,1012.49
2023-05-25T03:51:07.456Z,1012.51
2023-05-25T03:51:28.684Z,1012.51
2023-05-25T03:51:49.705Z,1012.51
2023-05-25T03:52:10.784Z,1012.51
2023-05-25T03:52:31.911Z,1012.53
2023-05-25T03:52:52.975Z,1012.53
2023-05-25T03:53:14.050Z,1012.55
2023-05-25T03:53:35.097Z,1012.53
2023-05-25T03:53:56.142Z,1012.55
2023-05-25T03:54:17.207Z,1012.51
2023-05-25T03:54:38.293Z,1012.53
2023-05-25T03:54:59.950Z,1012.55
2023-05-25T03:55:21.004Z,1012.55
2023-05-25T03:55:42.163Z,1012.55
2023-05-25T03:56:03.275Z,1012.53
2023-05-25T03:56:24.406Z,1012.53
2023-05-25T03:56:45.479Z,1012.57
2023-05-25T03:57:06.526Z,1012.57
2023-05-25T03:57:27.592Z,1012.57
2023-05-25T03:57:48.640Z,1012.59
2023-05-25T03:58:09.674Z,1012.61
2023-05-25T03:58:30.735Z,1012.59
2023-05-25T03:58:51.784Z,1012.55
2023-05-25T03:59:12.885Z,1012.53
2023-05-25T03:59:33.925Z,1012.55
2023-05-25T03:59:54.945Z,1012.55
2023-05-25T04:00:15.993Z,1012.55
2023-05-25T04:00:37.046Z,1012.55
2023-05-25T04:00:58.081Z,1012.55
2023-05-25T04:01:19.161Z,1012.57
2023-05-25T04:01:40.380Z,1012.55
2023-05-25T04:02:01.471Z,1012.55
2023-05-25T04:02:22.557Z,1012.57
2023-05-25T04:02:43.613Z,1012.57
2023-05-25T04:03:04.787Z,1012.55
2023-05-25T04:03:26.031Z,1012.57
2023-05-25T04:03:47.233Z,1012.55
2023-05-25T04:04:08.438Z,1012.55
2023-05-25T04:04:29.573Z,1012.55
2023-05-25T04:04:50.707Z,1012.55
2023-05-25T04:05:11.849Z,1012.55
2023-05-25T04:05:32.898Z,1012.57
2023-05-25T04:05:53.947Z,1012.55
2023-05-25T04:06:15.011Z,1012.57
2023-05-25T04:06:36.043Z,1012.57
2023-05-25T04:06:57.306Z,1012.57
2023-05-25T04:07:18.432Z,1012.55
2023-05-25T04:07:39.463Z,1012.57
2023-05-25T04:08:00.525Z,1012.53
2023-05-25T04:08:21.561Z,1012.55
2023-05-25T04:08:42.598Z,1012.55
2023-05-25T04:09:03.639Z,1012.55
2023-05-25T04:09:24.736Z,1012.55
2023-05-25T04:09:45.760Z,1012.57
2023-05-25T04:10:06.809Z,1012.59
2023-05-25T04:10:27.860Z,1012.59
2023-05-25T04:10:48.900Z,1012.59
2023-05-25T04:11:09.967Z,1012.57
2023-05-25T04:11:31.027Z,1012.59
2023-05-25T04:11:52.064Z,1012.59
2023-05-25T04:12:13.198Z,1012.61
2023-05-25T04:12:34.446Z,1012.63
2023-05-25T04:12:55.481Z,1012.63
2023-05-25T04:13:16.532Z,1012.61
2023-05-25T04:13:37.585Z,1012.61
2023-05-25T04:13:58.633Z,1012.57
2023-05-25T04:14:19.667Z,1012.59
2023-05-25T04:14:40.739Z,1012.59
2023-05-25T04:15:01.788Z,1012.63
2023-05-25T04:15:22.818Z,1012.61